createdAt,value
2022-12-23T00:01:07.763Z,52.0
2022-12-23T00:03:38.733Z,52.0
2022-12-23T00:06:09.538Z,52.0
2022-12-23T00:08:40.172Z,52.0
2022-12-23T00:11:10.862Z,52.0
2022-12-23T00:13:41.516Z,52.0
2022-12-23T00:16:22.326Z,52.0
2022-12-23T00:21:23.227Z,52.0
2022-12-23T00:26:24.049Z,52.0
2022-12-23T00:28:54.723Z,52.0
2022-12-23T00:31:35.669Z,52.0
2022-12-23T00:34:06.401Z,52.0
2022-12-23T00:36:37.181Z,52.0
2022-12-23T00:39:07.900Z,52.0
2022-12-23T00:41:38.720Z,52.0
2022-12-23T00:44:09.351Z,53.0
2022-12-23T00:46:49.992Z,52.0
2022-12-23T00:49:20.642Z,52.0
2022-12-23T00:51:51.344Z,52.0
2022-12-23T00:54:22.397Z,53.0
2022-12-23T00:56:53.089Z,53.0
2022-12-23T01:02:04.471Z,53.0
2022-12-23T01:04:35.372Z,53.0
2022-12-23T01:07:06.081Z,53.0
2022-12-23T01:09:36.727Z,53.0
2022-12-23T01:12:07.420Z,53.0
2022-12-23T01:14:48.084Z,53.0
2022-12-23T01:17:18.971Z,53.0
2022-12-23T01:19:49.686Z,53.0
2022-12-23T01:22:20.323Z,53.0
2022-12-23T01:24:50.988Z,53.0
2022-12-23T01:27:21.654Z,53.0
2022-12-23T01:30:02.295Z,53.0
2022-12-23T01:32:32.964Z,53.0
2022-12-23T01:35:03.624Z,53.0
2022-12-23T01:37:34.277Z,53.0
2022-12-23T01:42:35.089Z,53.0
2022-12-23T01:45:15.875Z,53.0
2022-12-23T01:47:46.549Z,53.0
2022-12-23T01:50:17.214Z,53.0
2022-12-23T01:52:47.887Z,53.0
2022-12-23T01:55:25.025Z,53.0
2022-12-23T01:58:05.695Z,53.0
2022-12-23T02:00:36.361Z,53.0
2022-12-23T02:03:07.284Z,53.0
2022-12-23T02:05:38.079Z,53.0
2022-12-23T02:08:08.711Z,53.0
2022-12-23T02:10:39.375Z,53.0
2022-12-23T02:13:20.047Z,53.0
2022-12-23T02:15:50.811Z,53.0
2022-12-23T02:18:21.474Z,53.0
2022-12-23T02:23:22.313Z,53.0
2022-12-23T02:25:53.033Z,53.0
2022-12-23T02:28:33.658Z,53.0
2022-12-23T02:31:04.453Z,53.0
2022-12-23T02:33:35.256Z,53.0
2022-12-23T02:36:05.925Z,53.0
2022-12-23T02:38:36.595Z,53.0
2022-12-23T02:41:07.321Z,53.0
2022-12-23T02:43:47.969Z,53.0
2022-12-23T02:46:18.750Z,53.0
2022-12-23T02:48:49.509Z,53.0
2022-12-23T02:51:20.206Z,53.0
2022-12-23T02:53:50.894Z,53.0
2022-12-23T02:56:21.553Z,53.0
2022-12-23T02:59:02.204Z,53.0
2022-12-23T03:04:03.215Z,53.0
2022-12-23T03:06:33.865Z,53.0
2022-12-23T03:09:04.542Z,53.0
2022-12-23T03:11:35.183Z,53.0
2022-12-23T03:14:15.839Z,53.0
2022-12-23T03:16:46.479Z,53.0
2022-12-23T03:21:48.369Z,53.0
2022-12-23T03:24:18.999Z,53.0
2022-12-23T03:26:59.675Z,53.0
2022-12-23T03:29:30.296Z,53.0
2022-12-23T03:32:01.225Z,53.0
2022-12-23T03:34:31.903Z,53.0
2022-12-23T03:37:02.552Z,53.0
2022-12-23T03:39:33.169Z,53.0
2022-12-23T03:44:57.443Z,53.0
2022-12-23T03:47:19.646Z,53.0
2022-12-23T03:49:50.327Z,53.0
2022-12-23T03:52:25.965Z,53.0
2022-12-23T03:54:46.577Z,53.0
2022-12-23T03:57:27.261Z,53.0
2022-12-23T03:59:57.943Z,53.0
2022-12-23T04:02:28.856Z,53.0
2022-12-23T04:04:59.651Z,53.0
2022-12-23T04:07:30.339Z,53.0
2022-12-23T04:10:01.000Z,53.0
2022-12-23T04:12:41.662Z,53.0
2022-12-23T04:15:16.353Z,53.0
2022-12-23T04:17:47.011Z,53.0
2022-12-23T04:20:17.650Z,53.0
2022-12-23T04:27:58.602Z,53.0
2022-12-23T04:30:33.835Z,53.0
2022-12-23T04:32:55.050Z,53.0
2022-12-23T04:35:25.686Z,53.0
2022-12-23T04:37:56.348Z,53.0
2022-12-23T04:40:37.044Z,53.0
2022-12-23T04:43:07.727Z,53.0
2022-12-23T04:45:38.385Z,53.0
2022-12-23T04:48:09.035Z,53.0
2022-12-23T04:50:39.685Z,53.0
2022-12-23T04:53:10.341Z,53.0
2022-12-23T04:55:50.999Z,53.0
2022-12-23T04:58:21.659Z,53.0
2022-12-23T05:01:02.375Z,53.0
2022-12-23T05:06:03.375Z,53.0
2022-12-23T05:08:34.038Z,53.0
2022-12-23T05:11:14.745Z,53.0
2022-12-23T05:13:45.379Z,53.0
2022-12-23T05:16:16.143Z,53.0
2022-12-23T05:18:46.900Z,53.0
2022-12-23T05:21:17.554Z,53.0
2022-12-23T05:23:58.207Z,53.0
2022-12-23T05:26:28.858Z,53.0
2022-12-23T05:28:59.502Z,53.0
2022-12-23T05:31:30.377Z,53.0
2022-12-23T05:34:06.204Z,53.0
2022-12-23T05:36:27.300Z,53.0
2022-12-23T05:39:07.940Z,53.0
2022-12-23T05:41:38.577Z,53.0
2022-12-23T05:49:09.535Z,53.0
2022-12-23T05:51:40.256Z,53.0
2022-12-23T05:54:20.877Z,53.0
2022-12-23T05:56:51.539Z,53.0
2022-12-23T05:59:25.350Z,53.0
2022-12-23T06:01:58.634Z,53.0
2022-12-23T06:04:29.826Z,53.0
2022-12-23T06:07:00.568Z,53.0
2022-12-23T06:09:41.248Z,53.0
2022-12-23T06:12:11.931Z,53.0
2022-12-23T06:14:42.558Z,53.0
2022-12-23T06:17:13.343Z,53.0
2022-12-23T06:19:43.990Z,53.0
2022-12-23T06:22:14.675Z,53.0
2022-12-23T06:27:25.480Z,53.0
2022-12-23T06:29:56.115Z,53.0
2022-12-23T06:32:26.837Z,53.0
2022-12-23T06:34:59.449Z,53.0
2022-12-23T06:37:40.155Z,53.0
2022-12-23T06:42:40.996Z,53.0
2022-12-23T06:45:11.687Z,53.0
2022-12-23T06:47:42.360Z,53.0
2022-12-23T06:50:13.006Z,53.0
2022-12-23T06:52:53.670Z,53.0
2022-12-23T06:55:24.360Z,53.0
2022-12-23T06:57:55.045Z,53.0
2022-12-23T07:00:25.727Z,53.0
2022-12-23T07:02:56.660Z,53.0
2022-12-23T07:08:07.668Z,53.0
2022-12-23T07:10:38.334Z,53.0
2022-12-23T07:13:08.997Z,53.0
2022-12-23T07:15:39.649Z,53.0
2022-12-23T07:18:10.293Z,53.0
2022-12-23T07:20:40.953Z,53.0
2022-12-23T07:23:21.635Z,53.0
2022-12-23T07:25:52.397Z,53.0
2022-12-23T07:28:23.024Z,53.0
2022-12-23T07:30:53.656Z,53.0
2022-12-23T07:33:24.375Z,53.0
2022-12-23T07:36:05.050Z,53.0
2022-12-23T07:38:35.716Z,53.0
2022-12-23T07:41:06.346Z,53.0
2022-12-23T07:43:37.008Z,53.0
2022-12-23T07:48:37.857Z,53.0
2022-12-23T07:51:18.557Z,53.0
2022-12-23T07:53:49.175Z,53.0
2022-12-23T07:56:19.827Z,53.0
2022-12-23T07:58:50.464Z,53.0
2022-12-23T08:01:21.251Z,53.0
2022-12-23T08:03:52.263Z,53.0
2022-12-23T08:06:32.957Z,53.0
2022-12-23T08:09:03.590Z,53.0
2022-12-23T08:11:34.367Z,53.0
2022-12-23T08:14:05.015Z,53.0
2022-12-23T08:16:41.449Z,53.0
2022-12-23T08:19:04.066Z,53.0
2022-12-23T08:21:44.712Z,53.0
2022-12-23T08:24:15.417Z,53.0
2022-12-23T08:29:16.196Z,53.0
2022-12-23T08:31:50.452Z,53.0
2022-12-23T08:34:31.107Z,53.0
2022-12-23T08:37:01.767Z,53.0
2022-12-23T08:39:32.411Z,53.0
2022-12-23T08:42:03.025Z,53.0
2022-12-23T08:44:33.663Z,53.0
2022-12-23T08:47:04.298Z,53.0
2022-12-23T08:49:44.976Z,53.0
2022-12-23T08:52:15.634Z,53.0
2022-12-23T08:54:46.329Z,53.0
2022-12-23T08:57:16.978Z,53.0
2022-12-23T08:59:47.649Z,53.0
2022-12-23T09:02:18.504Z,53.0
2022-12-23T09:04:59.422Z,53.0
2022-12-23T09:10:00.242Z,53.0
2022-12-23T09:12:30.928Z,53.0
2022-12-23T09:15:01.642Z,53.0
2022-12-23T09:17:32.305Z,53.0
2022-12-23T09:20:12.933Z,53.0
2022-12-23T09:22:43.579Z,53.0
2022-12-23T09:25:15.719Z,53.0
2022-12-23T09:27:46.320Z,53.0
2022-12-23T09:30:16.960Z,53.0
2022-12-23T09:32:47.592Z,53.0
2022-12-23T09:35:28.266Z,53.0
2022-12-23T09:40:29.035Z,53.0
2022-12-23T09:42:59.665Z,53.0
2022-12-23T09:45:33.011Z,53.0
2022-12-23T09:50:46.364Z,53.0
2022-12-23T09:53:17.035Z,53.0
2022-12-23T09:55:47.659Z,53.0
2022-12-23T09:58:18.557Z,53.0
2022-12-23T10:00:49.249Z,53.0
2022-12-23T10:03:30.384Z,53.0
2022-12-23T10:06:01.494Z,53.0
2022-12-23T10:08:32.636Z,53.0
2022-12-23T10:11:03.284Z,53.0
2022-12-23T10:13:33.939Z,53.0
2022-12-23T10:16:04.688Z,53.0
2022-12-23T10:18:45.568Z,53.0
2022-12-23T10:21:16.254Z,53.0
2022-12-23T10:23:46.963Z,53.0
2022-12-23T10:26:17.633Z,53.0
2022-12-23T10:31:48.670Z,53.0
2022-12-23T10:33:59.419Z,53.0
2022-12-23T10:36:30.268Z,53.0
2022-12-23T10:39:02.635Z,53.0
2022-12-23T10:41:33.258Z,53.0
2022-12-23T10:44:03.885Z,53.0
2022-12-23T10:46:34.667Z,53.0
2022-12-23T10:49:15.450Z,53.0
2022-12-23T10:51:46.127Z,53.0
2022-12-23T10:54:16.830Z,53.0
2022-12-23T10:56:47.640Z,53.0
2022-12-23T10:59:18.588Z,53.0
2022-12-23T11:01:59.720Z,53.0
2022-12-23T11:04:30.737Z,53.0
2022-12-23T11:07:44.447Z,53.0
2022-12-23T11:11:55.698Z,53.0
2022-12-23T11:14:36.662Z,53.0
2022-12-23T11:17:07.315Z,53.0
2022-12-23T11:19:47.959Z,53.0
2022-12-23T11:22:18.730Z,53.0
2022-12-23T11:24:53.472Z,53.0
2022-12-23T11:27:14.114Z,53.0
2022-12-23T11:29:44.746Z,53.0
2022-12-23T11:32:25.399Z,53.0
2022-12-23T11:34:56.076Z,53.0
2022-12-23T11:37:26.807Z,53.0
2022-12-23T11:39:58.295Z,53.0
2022-12-23T11:42:28.982Z,53.0
2022-12-23T11:44:59.640Z,52.0
2022-12-23T11:47:40.298Z,53.0
2022-12-23T11:52:42.106Z,52.0
2022-12-23T11:57:43.152Z,52.0
2022-12-23T12:00:13.830Z,53.0
2022-12-23T12:02:54.695Z,52.0
2022-12-23T12:05:25.495Z,52.0
2022-12-23T12:07:56.176Z,52.0
2022-12-23T12:10:27.035Z,52.0
2022-12-23T12:13:03.019Z,52.0
2022-12-23T12:15:33.680Z,52.0
2022-12-23T12:18:14.327Z,52.0
2022-12-23T12:20:44.992Z,52.0
2022-12-23T12:23:15.641Z,52.0
2022-12-23T12:25:49.798Z,52.0
2022-12-23T12:28:10.457Z,52.0
2022-12-23T12:33:21.225Z,52.0
2022-12-23T12:35:53.822Z,52.0
2022-12-23T12:38:26.282Z,52.0
2022-12-23T12:40:56.953Z,52.0
2022-12-23T12:43:27.641Z,52.0
2022-12-23T12:46:08.434Z,52.0
2022-12-23T12:48:39.186Z,52.0
2022-12-23T12:51:09.843Z,52.0
2022-12-23T12:53:40.477Z,52.0
2022-12-23T12:56:13.097Z,52.0
2022-12-23T12:58:43.730Z,52.0
2022-12-23T13:01:24.612Z,52.0
2022-12-23T13:03:55.427Z,52.0
2022-12-23T13:06:26.108Z,52.0
2022-12-23T13:08:57.201Z,52.0
2022-12-23T13:13:58.340Z,52.0
2022-12-23T13:16:39.042Z,52.0
2022-12-23T13:19:09.844Z,52.0
2022-12-23T13:21:40.483Z,52.0
2022-12-23T13:24:14.419Z,52.0
2022-12-23T13:26:45.071Z,52.0
2022-12-23T13:31:55.847Z,52.0
2022-12-23T13:34:26.523Z,52.0
2022-12-23T13:36:58.486Z,52.0
2022-12-23T13:39:29.209Z,52.0
2022-12-23T13:42:04.766Z,52.0
2022-12-23T13:47:06.074Z,52.0
2022-12-23T13:49:36.711Z,52.0
2022-12-23T13:54:37.896Z,52.0
2022-12-23T13:57:08.720Z,52.0
2022-12-23T13:59:49.403Z,52.0
2022-12-23T14:02:25.914Z,52.0
2022-12-23T14:04:56.869Z,52.0
2022-12-23T14:07:23.562Z,52.0
2022-12-23T14:09:54.214Z,52.0
2022-12-23T14:12:24.883Z,52.0
2022-12-23T14:15:05.559Z,52.0
2022-12-23T14:17:36.203Z,52.0
2022-12-23T14:20:06.902Z,52.0
2022-12-23T14:22:37.777Z,52.0
2022-12-23T14:25:08.455Z,52.0
2022-12-23T14:27:39.096Z,52.0
2022-12-23T14:30:19.748Z,52.0
2022-12-23T14:35:20.580Z,52.0
2022-12-23T14:37:53.855Z,52.0
2022-12-23T14:40:24.481Z,52.0
2022-12-23T14:42:55.094Z,52.0
2022-12-23T14:45:35.742Z,52.0
2022-12-23T14:48:06.421Z,52.0
2022-12-23T14:50:37.083Z,52.0
2022-12-23T14:53:08.645Z,52.0
2022-12-23T14:55:41.488Z,52.0
2022-12-23T14:58:23.254Z,52.0
2022-12-23T15:00:53.921Z,52.0
2022-12-23T15:03:24.677Z,52.0
2022-12-23T15:05:55.367Z,52.0
2022-12-23T15:08:26.023Z,52.0
2022-12-23T15:10:56.644Z,52.0
2022-12-23T15:16:11.938Z,52.0
2022-12-23T15:18:32.705Z,52.0
2022-12-23T15:21:03.354Z,52.0
2022-12-23T15:23:33.986Z,52.0
2022-12-23T15:26:04.676Z,52.0
2022-12-23T15:28:45.323Z,52.0
2022-12-23T15:31:16.078Z,52.0
2022-12-23T15:34:17.198Z,52.0
2022-12-23T15:36:18.009Z,52.0
2022-12-23T15:38:48.759Z,52.0
2022-12-23T15:41:19.395Z,52.0
2022-12-23T15:44:00.052Z,52.0
2022-12-23T15:46:37.069Z,52.0
2022-12-23T15:49:07.816Z,52.0
2022-12-23T15:52:10.809Z,53.0
2022-12-23T15:56:33.167Z,53.0
2022-12-23T15:59:23.818Z,52.0
2022-12-23T16:01:54.802Z,53.0
2022-12-23T16:04:25.470Z,52.0
2022-12-23T16:06:46.252Z,52.0
2022-12-23T16:09:26.893Z,53.0
2022-12-23T16:12:07.583Z,52.0
2022-12-23T16:14:38.357Z,53.0
2022-12-23T16:17:09.012Z,53.0
2022-12-23T16:19:39.632Z,53.0
2022-12-23T16:22:10.373Z,52.0
2022-12-23T16:24:41.034Z,53.0
2022-12-23T16:27:21.690Z,52.0
2022-12-23T16:29:52.333Z,52.0
2022-12-23T16:32:23.652Z,52.0
2022-12-23T16:37:24.470Z,52.0
2022-12-23T16:39:55.224Z,52.0
2022-12-23T16:42:35.873Z,52.0
2022-12-23T16:45:06.474Z,53.0
2022-12-23T16:47:37.122Z,52.0
2022-12-23T16:50:07.774Z,52.0
2022-12-23T16:52:38.502Z,52.0
2022-12-23T16:55:09.132Z,52.0
2022-12-23T16:57:49.787Z,52.0
2022-12-23T17:00:20.430Z,52.0
2022-12-23T17:02:51.224Z,52.0
2022-12-23T17:05:22.018Z,52.0
2022-12-23T17:07:55.766Z,52.0
2022-12-23T17:10:16.436Z,52.0
2022-12-23T17:12:57.093Z,52.0
2022-12-23T17:18:07.926Z,52.0
2022-12-23T17:20:38.779Z,52.0
2022-12-23T17:23:09.406Z,52.0
2022-12-23T17:25:50.038Z,52.0
2022-12-23T17:28:20.730Z,52.0
2022-12-23T17:30:51.791Z,52.0
2022-12-23T17:33:19.196Z,52.0
2022-12-23T17:35:49.858Z,52.0
2022-12-23T17:38:20.660Z,52.0
2022-12-23T17:41:01.335Z,52.0
2022-12-23T17:43:31.989Z,52.0
2022-12-23T17:46:02.882Z,52.0
2022-12-23T17:48:39.742Z,52.0
2022-12-23T17:51:00.433Z,52.0
2022-12-23T17:53:31.079Z,52.0
2022-12-23T17:58:41.884Z,52.0
2022-12-23T18:01:12.665Z,51.0
2022-12-23T18:06:13.579Z,51.0
2022-12-23T18:08:44.218Z,51.0
2022-12-23T18:11:24.890Z,51.0
2022-12-23T18:13:55.522Z,51.0
2022-12-23T18:16:26.362Z,51.0
2022-12-23T18:18:57.583Z,51.0
2022-12-23T18:21:28.246Z,51.0
2022-12-23T18:24:09.040Z,51.0
2022-12-23T18:26:39.695Z,51.0
2022-12-23T18:29:10.343Z,51.0
2022-12-23T18:31:45.302Z,51.0
2022-12-23T18:34:19.056Z,51.0
2022-12-23T18:39:29.910Z,51.0
2022-12-23T18:42:00.535Z,51.0
2022-12-23T18:44:31.517Z,51.0
2022-12-23T18:47:02.394Z,51.0
2022-12-23T18:49:33.075Z,51.0
2022-12-23T18:52:03.744Z,51.0
2022-12-23T18:54:44.391Z,51.0
2022-12-23T18:57:15.034Z,51.0
2022-12-23T18:59:45.683Z,51.0
2022-12-23T19:02:16.539Z,51.0
2022-12-23T19:04:47.273Z,51.0
2022-12-23T19:07:17.912Z,51.0
2022-12-23T19:09:58.715Z,51.0
2022-12-23T19:12:29.374Z,51.0
2022-12-23T19:15:00.038Z,51.0
2022-12-23T19:20:00.828Z,50.0
2022-12-23T19:22:41.502Z,51.0
2022-12-23T19:25:16.937Z,51.0
2022-12-23T19:27:37.594Z,51.0
2022-12-23T19:30:08.262Z,51.0
2022-12-23T19:32:39.100Z,51.0
2022-12-23T19:35:09.753Z,51.0
2022-12-23T19:38:00.451Z,51.0
2022-12-23T19:40:21.163Z,50.0
2022-12-23T19:43:01.829Z,50.0
2022-12-23T19:45:32.444Z,50.0
2022-12-23T19:48:03.075Z,50.0
2022-12-23T19:50:33.729Z,49.0
2022-12-23T19:53:14.375Z,49.0
2022-12-23T19:55:45.004Z,49.0
2022-12-23T20:00:39.628Z,48.0
2022-12-23T20:03:10.538Z,48.0
2022-12-23T20:05:41.290Z,48.0
2022-12-23T20:08:21.903Z,48.0
2022-12-23T20:10:52.574Z,48.0
2022-12-23T20:13:23.235Z,48.0
2022-12-23T20:15:53.930Z,48.0
2022-12-23T20:18:24.715Z,48.0
2022-12-23T20:20:55.431Z,48.0
2022-12-23T20:23:36.078Z,48.0
2022-12-23T20:26:06.767Z,48.0
2022-12-23T20:28:37.425Z,48.0
2022-12-23T20:31:08.163Z,47.0
2022-12-23T20:33:39.124Z,47.0
2022-12-23T20:36:09.864Z,47.0
2022-12-23T20:41:20.804Z,47.0
2022-12-23T20:44:09.261Z,47.0
2022-12-23T20:46:26.726Z,47.0
2022-12-23T20:48:57.593Z,47.0
2022-12-23T20:51:38.249Z,47.0
2022-12-23T20:54:08.910Z,47.0
2022-12-23T20:56:39.691Z,47.0
2022-12-23T20:59:10.517Z,47.0
2022-12-23T21:01:41.334Z,47.0
2022-12-23T21:04:12.125Z,47.0
2022-12-23T21:06:52.844Z,47.0
2022-12-23T21:09:23.540Z,47.0
2022-12-23T21:11:54.201Z,47.0
2022-12-23T21:14:24.860Z,47.0
2022-12-23T21:16:55.825Z,47.0
2022-12-23T21:22:06.661Z,47.0
2022-12-23T21:24:37.323Z,47.0
2022-12-23T21:27:07.977Z,47.0
2022-12-23T21:29:38.623Z,47.0
2022-12-23T21:32:09.512Z,47.0
2022-12-23T21:34:40.136Z,47.0
2022-12-23T21:37:20.832Z,47.0
2022-12-23T21:39:51.532Z,47.0
2022-12-23T21:42:22.169Z,47.0
2022-12-23T21:47:23.081Z,47.0
2022-12-23T21:50:03.748Z,47.0
2022-12-23T21:52:34.411Z,47.0
2022-12-23T21:55:05.036Z,47.0
2022-12-23T21:57:35.666Z,47.0
2022-12-23T22:02:36.600Z,47.0
2022-12-23T22:05:17.363Z,47.0
2022-12-23T22:07:47.983Z,47.0
2022-12-23T22:10:18.716Z,47.0
2022-12-23T22:12:49.375Z,47.0
2022-12-23T22:15:22.139Z,47.0
2022-12-23T22:17:52.754Z,47.0
2022-12-23T22:20:33.407Z,47.0
2022-12-23T22:23:06.891Z,47.0
2022-12-23T22:25:37.581Z,47.0
2022-12-23T22:28:08.225Z,47.0
2022-12-23T22:30:39.015Z,47.0
2022-12-23T22:33:09.656Z,47.0
2022-12-23T22:35:50.352Z,48.0
2022-12-23T22:38:21.122Z,47.0
2022-12-23T22:43:21.907Z,48.0
2022-12-23T22:45:52.794Z,47.0
2022-12-23T22:48:34.187Z,48.0
2022-12-23T22:51:04.841Z,48.0
2022-12-23T22:53:39.862Z,48.0
2022-12-23T22:56:10.524Z,48.0
2022-12-23T22:58:41.222Z,48.0
2022-12-23T23:01:11.882Z,48.0
2022-12-23T23:03:52.534Z,48.0
2022-12-23T23:06:23.286Z,47.0
2022-12-23T23:08:53.937Z,47.0
2022-12-23T23:11:24.614Z,47.0
2022-12-23T23:13:55.287Z,47.0
2022-12-23T23:16:26.092Z,47.0
2022-12-23T23:19:06.830Z,47.0
2022-12-23T23:24:08.664Z,47.0
2022-12-23T23:26:39.327Z,47.0
2022-12-23T23:29:09.991Z,47.0
2022-12-23T23:31:54.152Z,47.0
2022-12-23T23:34:14.837Z,47.0
2022-12-23T23:36:45.650Z,47.0
2022-12-23T23:39:16.381Z,47.0
2022-12-23T23:41:47.076Z,47.0
2022-12-23T23:44:17.690Z,47.0
2022-12-23T23:46:48.444Z,47.0
2022-12-23T23:49:29.082Z,47.0
2022-12-23T23:51:59.723Z,47.0
2022-12-23T23:54:30.350Z,47.0
2022-12-23T23:57:00.984Z,46.0
2022-12-23T23:59:31.650Z,47.0
